createdAt,value
2023-05-26T00:01:32.960Z,7.38
2023-05-26T00:05:41.875Z,8.30
2023-05-26T00:09:44.202Z,8.75
2023-05-26T00:13:46.308Z,9.00
2023-05-26T00:17:48.413Z,7.85
2023-05-26T00:21:50.524Z,7.68
2023-05-26T00:25:52.484Z,7.13
2023-05-26T00:29:54.584Z,7.38
2023-05-26T00:33:56.604Z,6.90
2023-05-26T00:37:58.618Z,7.63
2023-05-26T00:42:01.943Z,7.18
2023-05-26T00:46:04.052Z,7.28
2023-05-26T00:50:07.291Z,6.30
2023-05-26T00:54:10.606Z,7.00
2023-05-26T00:58:12.914Z,7.75
2023-05-26T01:02:16.332Z,7.38
2023-05-26T01:06:18.939Z,7.40
2023-05-26T01:10:22.200Z,7.18
2023-05-26T01:14:30.642Z,7.72
2023-05-26T01:18:49.203Z,7.13
2023-05-26T01:23:15.580Z,7.15
2023-05-26T01:27:45.030Z,6.03
2023-05-26T01:31:47.197Z,7.38
2023-05-26T01:35:49.342Z,6.95
2023-05-26T01:39:51.487Z,7.10
2023-05-26T01:44:12.180Z,7.10
2023-05-26T01:48:18.135Z,7.22
2023-05-26T01:52:21.390Z,7.82
2023-05-26T01:56:26.924Z,7.50
2023-05-26T02:00:28.801Z,7.63
2023-05-26T02:04:30.897Z,7.75
2023-05-26T02:08:32.862Z,7.78
2023-05-26T02:12:34.810Z,7.70
2023-05-26T02:16:37.259Z,7.93
2023-05-26T02:20:39.334Z,8.32
2023-05-26T02:24:41.491Z,7.80
2023-05-26T02:28:43.561Z,7.68
2023-05-26T02:32:45.624Z,7.28
2023-05-26T02:36:47.700Z,7.80
2023-05-26T02:40:53.067Z,8.00
2023-05-26T02:44:55.095Z,8.55
2023-05-26T02:48:56.936Z,8.20
2023-05-26T02:52:59.282Z,8.23
2023-05-26T02:57:01.440Z,7.63
2023-05-26T03:01:03.968Z,8.38
2023-05-26T03:05:07.133Z,8.43
2023-05-26T03:09:09.756Z,8.68
2023-05-26T03:13:11.964Z,8.07
2023-05-26T03:17:14.404Z,8.73
2023-05-26T03:21:47.125Z,8.48
2023-05-26T03:25:42.150Z,9.00
2023-05-26T03:29:44.477Z,7.93
2023-05-26T03:33:46.773Z,8.82
2023-05-26T03:37:50.301Z,8.10
2023-05-26T03:41:52.341Z,8.82
2023-05-26T03:45:57.079Z,8.02
2023-05-26T03:49:59.122Z,8.87
2023-05-26T03:54:01.704Z,7.90
2023-05-26T03:58:04.624Z,9.00
2023-05-26T04:02:07.460Z,8.15
2023-05-26T04:06:09.615Z,8.43
2023-05-26T04:10:13.140Z,8.40
2023-05-26T04:14:15.265Z,8.15
2023-05-26T04:18:17.165Z,8.98
2023-05-26T04:22:19.235Z,8.95
2023-05-26T04:26:22.260Z,8.98
2023-05-26T04:30:47.049Z,9.57
2023-05-26T04:35:08.376Z,9.10
2023-05-26T04:39:13.375Z,8.88
2023-05-26T04:43:15.946Z,9.07
2023-05-26T04:47:18.101Z,9.20
2023-05-26T04:51:22.011Z,9.07
2023-05-26T04:55:24.281Z,9.00
2023-05-26T04:59:27.330Z,9.35
2023-05-26T05:03:30.217Z,8.70
2023-05-26T05:07:58.872Z,8.70
2023-05-26T05:12:02.673Z,8.60
2023-05-26T05:16:05.748Z,8.63
2023-05-26T05:20:15.931Z,8.40
2023-05-26T05:24:19.310Z,8.60
2023-05-26T05:28:21.451Z,8.15
2023-05-26T05:32:39.278Z,8.18
2023-05-26T05:36:41.362Z,7.43
2023-05-26T05:40:44.172Z,8.23
2023-05-26T05:44:47.123Z,8.40
2023-05-26T05:48:49.261Z,8.27
2023-05-26T05:52:56.882Z,8.40
2023-05-26T05:56:59.104Z,8.02
2023-05-26T06:01:01.742Z,7.70
2023-05-26T06:05:04.167Z,7.47
2023-05-26T06:09:08.792Z,7.82
2023-05-26T06:13:10.930Z,7.60
2023-05-26T06:17:13.227Z,7.93
2023-05-26T06:21:17.733Z,7.95
2023-05-26T06:25:23.624Z,6.95
2023-05-26T06:29:25.721Z,7.65
2023-05-26T06:33:27.890Z,7.43
2023-05-26T06:37:29.798Z,7.25
2023-05-26T06:41:31.838Z,6.68
2023-05-26T06:45:34.096Z,6.95
2023-05-26T06:49:36.193Z,6.85
2023-05-26T06:53:43.394Z,6.10
2023-05-26T06:57:47.816Z,6.93
2023-05-26T07:01:53.164Z,6.65
2023-05-26T07:05:57.714Z,6.32
2023-05-26T07:10:01.506Z,6.68
2023-05-26T07:14:04.690Z,6.38
2023-05-26T07:18:07.124Z,7.15
2023-05-26T07:22:09.929Z,6.97
2023-05-26T07:26:22.125Z,6.78
2023-05-26T07:30:24.932Z,7.05
2023-05-26T07:34:33.569Z,6.82
2023-05-26T07:38:35.591Z,6.43
2023-05-26T07:42:37.550Z,6.90
2023-05-26T07:46:39.832Z,6.25
2023-05-26T07:50:42.523Z,6.97
2023-05-26T07:54:44.460Z,6.70
2023-05-26T07:58:47.836Z,7.15
2023-05-26T08:02:50.146Z,7.15
2023-05-26T08:06:52.240Z,6.97
2023-05-26T08:10:54.364Z,6.47
2023-05-26T08:14:56.414Z,6.93
2023-05-26T08:18:58.482Z,7.30
2023-05-26T08:23:00.557Z,6.93
2023-05-26T08:27:03.026Z,7.32
2023-05-26T08:31:05.528Z,7.00
2023-05-26T08:35:07.801Z,7.50
2023-05-26T08:39:10.259Z,7.30
2023-05-26T08:43:14.855Z,7.68
2023-05-26T08:47:18.157Z,7.82
2023-05-26T08:51:22.565Z,7.70
2023-05-26T08:55:24.595Z,6.97
2023-05-26T08:59:29.963Z,6.10
2023-05-26T09:03:32.351Z,7.10
2023-05-26T09:07:34.675Z,6.85
2023-05-26T09:11:44.226Z,7.10
2023-05-26T09:15:59.542Z,6.85
2023-05-26T09:20:09.483Z,8.65
2023-05-26T09:24:12.115Z,8.30
2023-05-26T09:28:15.859Z,10.95
2023-05-26T09:32:18.175Z,10.95
2023-05-26T09:36:24.572Z,12.52
2023-05-26T09:40:26.594Z,13.27
2023-05-26T09:44:33.130Z,11.43
2023-05-26T09:48:37.360Z,12.40
2023-05-26T09:52:39.277Z,7.88
2023-05-26T09:56:47.719Z,7.47
2023-05-26T10:00:50.125Z,7.25
2023-05-26T10:04:54.466Z,6.47
2023-05-26T10:08:58.840Z,6.75
2023-05-26T10:13:02.315Z,6.20
2023-05-26T10:17:04.910Z,6.38
2023-05-26T10:21:09.729Z,6.00
2023-05-26T10:25:32.632Z,5.90
2023-05-26T10:29:48.257Z,5.82
2023-05-26T10:33:50.382Z,5.75
2023-05-26T10:38:04.507Z,5.90
2023-05-26T10:47:49.510Z,5.60
2023-05-26T10:51:55.416Z,6.80
2023-05-26T10:56:03.442Z,6.45
2023-05-26T11:00:27.611Z,6.30
2023-05-26T11:04:42.437Z,5.63
2023-05-26T11:08:49.868Z,6.60
2023-05-26T11:12:56.168Z,6.18
2023-05-26T11:17:04.359Z,5.53
2023-05-26T11:21:07.697Z,5.25
2023-05-26T11:25:10.314Z,5.80
2023-05-26T11:29:12.431Z,6.13
2023-05-26T11:33:15.890Z,6.22
2023-05-26T11:37:20.653Z,6.10
2023-05-26T11:41:27.678Z,6.18
2023-05-26T11:45:29.828Z,6.45
2023-05-26T11:49:31.913Z,6.50
2023-05-26T11:53:33.970Z,5.80
2023-05-26T11:57:37.190Z,5.93
2023-05-26T12:01:39.267Z,6.30
2023-05-26T12:05:41.457Z,6.28
2023-05-26T12:09:43.509Z,5.90
2023-05-26T12:13:46.269Z,6.05
2023-05-26T12:17:48.905Z,5.47
2023-05-26T12:21:52.219Z,6.00
2023-05-26T12:25:54.256Z,6.32
2023-05-26T12:29:56.222Z,6.38
2023-05-26T12:33:58.137Z,6.38
2023-05-26T12:38:00.107Z,6.25
2023-05-26T12:42:02.924Z,9.50
2023-05-26T12:46:05.393Z,6.47
2023-05-26T12:50:08.034Z,9.68
2023-05-26T12:54:11.081Z,7.03
2023-05-26T12:58:12.941Z,5.60
2023-05-26T13:02:14.927Z,6.97
2023-05-26T13:06:17.275Z,5.90
2023-05-26T13:10:19.213Z,6.18
2023-05-26T13:14:21.529Z,5.90
2023-05-26T13:18:24.824Z,6.10
2023-05-26T13:22:27.415Z,6.60
2023-05-26T13:26:29.695Z,6.35
2023-05-26T13:30:32.042Z,6.88
2023-05-26T13:34:33.946Z,7.03
2023-05-26T13:38:36.724Z,6.40
2023-05-26T13:42:38.953Z,6.60
2023-05-26T13:46:41.574Z,6.05
2023-05-26T13:50:43.440Z,5.93
2023-05-26T13:54:45.299Z,5.80
2023-05-26T13:58:47.553Z,6.35
2023-05-26T14:02:51.094Z,6.43
2023-05-26T14:06:58.785Z,6.88
2023-05-26T14:11:11.545Z,6.90
2023-05-26T14:15:13.933Z,6.20
2023-05-26T14:19:17.507Z,6.30
2023-05-26T14:23:28.694Z,5.57
2023-05-26T14:27:30.825Z,5.93
2023-05-26T14:31:32.842Z,5.93
2023-05-26T14:35:34.929Z,5.30
2023-05-26T14:39:36.880Z,5.95
2023-05-26T14:43:40.111Z,4.80
2023-05-26T14:47:42.064Z,5.07
2023-05-26T14:51:44.894Z,6.68
2023-05-26T14:55:46.722Z,5.40
2023-05-26T14:59:48.697Z,5.05
2023-05-26T15:04:12.593Z,5.30
2023-05-26T15:08:13.190Z,4.78
2023-05-26T15:12:15.337Z,4.88
2023-05-26T15:16:17.249Z,4.30
2023-05-26T15:20:19.235Z,5.10
2023-05-26T15:24:21.376Z,5.20
2023-05-26T15:28:26.318Z,5.20
2023-05-26T15:32:28.290Z,4.72
2023-05-26T15:36:30.545Z,4.93
2023-05-26T15:40:33.322Z,5.28
2023-05-26T15:44:35.479Z,5.07
2023-05-26T15:48:37.949Z,4.82
2023-05-26T15:52:40.321Z,4.68
2023-05-26T15:56:42.258Z,3.92
2023-05-26T16:00:44.157Z,4.25
2023-05-26T16:04:46.368Z,5.00
2023-05-26T16:08:48.320Z,4.88
2023-05-26T16:12:50.440Z,5.22
2023-05-26T16:16:52.569Z,4.55
2023-05-26T16:20:54.533Z,5.00
2023-05-26T16:24:56.521Z,5.95
2023-05-26T16:28:58.461Z,5.00
2023-05-26T16:33:00.971Z,5.03
2023-05-26T16:37:04.244Z,4.65
2023-05-26T16:41:07.236Z,4.65
2023-05-26T16:45:09.859Z,4.60
2023-05-26T16:49:12.886Z,4.78
2023-05-26T16:53:14.978Z,4.90
2023-05-26T16:57:16.926Z,4.85
2023-05-26T17:01:18.827Z,5.22
2023-05-26T17:05:20.858Z,5.10
2023-05-26T17:09:22.904Z,5.15
2023-05-26T17:13:24.913Z,4.97
2023-05-26T17:17:27.114Z,5.00
2023-05-26T17:21:29.064Z,4.63
2023-05-26T17:25:31.270Z,5.43
2023-05-26T17:29:33.408Z,4.60
2023-05-26T17:33:36.388Z,5.38
2023-05-26T17:37:38.329Z,5.18
2023-05-26T17:41:40.584Z,4.55
2023-05-26T17:45:42.711Z,4.72
2023-05-26T17:49:44.593Z,4.70
2023-05-26T17:53:46.481Z,4.72
2023-05-26T17:57:48.656Z,4.88
2023-05-26T18:01:50.855Z,5.03
2023-05-26T18:05:53.255Z,5.15
2023-05-26T18:09:55.333Z,5.20
2023-05-26T18:13:57.360Z,6.05
2023-05-26T18:18:00.002Z,5.20
2023-05-26T18:22:02.042Z,5.47
2023-05-26T18:26:04.199Z,5.68
2023-05-26T18:30:07.313Z,5.10
2023-05-26T18:34:23.921Z,4.95
2023-05-26T18:38:27.615Z,5.93
2023-05-26T18:42:29.621Z,5.55
2023-05-26T18:46:31.819Z,5.25
2023-05-26T18:50:34.561Z,5.35
2023-05-26T18:54:36.543Z,5.47
2023-05-26T18:58:38.571Z,5.35
2023-05-26T19:02:41.263Z,5.72
2023-05-26T19:06:43.538Z,5.72
2023-05-26T19:10:45.802Z,5.40
2023-05-26T19:14:47.893Z,5.30
2023-05-26T19:18:50.454Z,5.78
2023-05-26T19:22:52.554Z,5.40
2023-05-26T19:26:54.658Z,6.63
2023-05-26T19:30:56.848Z,6.18
2023-05-26T19:34:58.859Z,6.25
2023-05-26T19:39:00.915Z,6.75
2023-05-26T19:43:02.934Z,6.70
2023-05-26T19:47:05.119Z,6.43
2023-05-26T19:51:07.686Z,6.30
2023-05-26T19:55:10.491Z,5.78
2023-05-26T19:59:12.778Z,5.45
2023-05-26T20:03:16.203Z,5.82
2023-05-26T20:07:18.479Z,6.10
2023-05-26T20:11:22.558Z,5.25
2023-05-26T20:15:25.168Z,5.50
2023-05-26T20:19:27.417Z,5.57
2023-05-26T20:23:29.578Z,5.53
2023-05-26T20:27:32.293Z,5.72
2023-05-26T20:31:34.496Z,6.38
2023-05-26T20:35:36.741Z,5.25
2023-05-26T20:39:41.892Z,5.80
2023-05-26T20:43:44.162Z,5.10
2023-05-26T20:47:46.707Z,5.00
2023-05-26T20:51:48.868Z,5.65
2023-05-26T20:55:51.359Z,5.05
2023-05-26T20:59:53.572Z,5.57
2023-05-26T21:03:57.103Z,4.95
2023-05-26T21:07:59.262Z,4.70
2023-05-26T21:12:01.731Z,4.97
2023-05-26T21:16:04.581Z,5.30
2023-05-26T21:20:07.471Z,4.97
2023-05-26T21:24:09.566Z,5.43
2023-05-26T21:28:11.800Z,4.38
2023-05-26T21:32:14.124Z,5.00
2023-05-26T21:36:16.189Z,4.85
2023-05-26T21:40:18.421Z,4.57
2023-05-26T21:44:20.508Z,4.55
2023-05-26T21:48:22.446Z,4.30
2023-05-26T21:52:24.915Z,5.03
2023-05-26T21:56:27.062Z,3.90
2023-05-26T22:00:29.046Z,3.83
2023-05-26T22:04:31.738Z,4.43
2023-05-26T22:08:34.011Z,4.07
2023-05-26T22:12:36.409Z,4.15
2023-05-26T22:16:38.509Z,4.00
2023-05-26T22:20:40.711Z,3.97
2023-05-26T22:24:42.755Z,4.40
2023-05-26T22:28:44.868Z,4.05
2023-05-26T22:32:47.083Z,4.55
2023-05-26T22:36:50.134Z,4.40
2023-05-26T22:40:52.472Z,3.72
2023-05-26T22:44:54.505Z,4.15
2023-05-26T22:48:56.706Z,4.85
2023-05-26T22:52:58.830Z,3.97
2023-05-26T22:57:00.994Z,3.83
2023-05-26T23:01:03.104Z,4.40
2023-05-26T23:05:05.592Z,4.40
2023-05-26T23:09:07.805Z,3.67
2023-05-26T23:13:10.140Z,3.90
2023-05-26T23:17:12.180Z,4.65
2023-05-26T23:21:14.377Z,3.97
2023-05-26T23:25:16.704Z,3.70
2023-05-26T23:29:22.768Z,4.10
2023-05-26T23:33:24.875Z,3.97
2023-05-26T23:37:28.506Z,4.30
2023-05-26T23:41:30.688Z,3.97
2023-05-26T23:45:32.814Z,4.13
2023-05-26T23:49:34.774Z,3.90
2023-05-26T23:53:36.778Z,4.13
2023-05-26T23:57:39.251Z,5.00
